sensor_id;sensor_type;location;lat;lon;timestamp;pressure;altitude;pressure_sealevel;temperature;humidity
63779;BME280;49923;55.970;37.516;2022-07-29T00:00:42;99725.19;;;16.59;88.06
63779;BME280;49923;55.970;37.516;2022-07-29T00:03:12;99720.09;;;16.70;88.69
63779;BME280;49923;55.970;37.516;2022-07-29T00:05:41;99720.34;;;16.52;87.15
63779;BME280;49923;55.970;37.516;2022-07-29T00:08:08;99725.81;;;16.63;89.12
63779;BME280;49923;55.970;37.516;2022-07-29T00:10:34;99726.19;;;16.43;88.84
63779;BME280;49923;55.970;37.516;2022-07-29T00:13:01;99721.38;;;16.21;87.94
63779;BME280;49923;55.970;37.516;2022-07-29T00:15:27;99719.25;;;16.42;88.68
63779;BME280;49923;55.970;37.516;2022-07-29T00:17:53;99724.31;;;16.45;89.46
63779;BME280;49923;55.970;37.516;2022-07-29T00:20:19;99728.41;;;15.92;88.42
63779;BME280;49923;55.970;37.516;2022-07-29T00:22:45;99720.47;;;16.08;88.49
63779;BME280;49923;55.970;37.516;2022-07-29T00:25:12;99723.09;;;16.22;88.96
63779;BME280;49923;55.970;37.516;2022-07-29T00:27:38;99721.56;;;16.32;88.68
63779;BME280;49923;55.970;37.516;2022-07-29T00:30:05;99733.22;;;16.28;88.59
63779;BME280;49923;55.970;37.516;2022-07-29T00:32:31;99733.41;;;16.11;88.40
63779;BME280;49923;55.970;37.516;2022-07-29T00:34:57;99730.25;;;16.20;88.74
63779;BME280;49923;55.970;37.516;2022-07-29T00:37:42;99725.72;;;16.08;88.22
63779;BME280;49923;55.970;37.516;2022-07-29T00:40:08;99731.16;;;16.05;88.57
63779;BME280;49923;55.970;37.516;2022-07-29T00:42:43;99732.63;;;16.09;88.27
63779;BME280;49923;55.970;37.516;2022-07-29T00:45:10;99732.47;;;15.68;86.20
63779;BME280;49923;55.970;37.516;2022-07-29T00:47:37;99736.41;;;16.05;88.02
63779;BME280;49923;55.970;37.516;2022-07-29T00:50:04;99729.44;;;16.04;88.36
63779;BME280;49923;55.970;37.516;2022-07-29T00:52:30;99730.00;;;15.94;88.19
63779;BME280;49923;55.970;37.516;2022-07-29T00:54:56;99735.06;;;15.83;87.99
63779;BME280;49923;55.970;37.516;2022-07-29T00:57:23;99732.22;;;15.86;88.11
63779;BME280;49923;55.970;37.516;2022-07-29T00:59:48;99739.63;;;15.80;88.63
63779;BME280;49923;55.970;37.516;2022-07-29T01:02:14;99742.50;;;15.45;87.58
63779;BME280;49923;55.970;37.516;2022-07-29T01:04:41;99741.03;;;15.85;88.92
63779;BME280;49923;55.970;37.516;2022-07-29T01:07:07;99740.41;;;15.82;88.92
63779;BME280;49923;55.970;37.516;2022-07-29T01:09:34;99741.47;;;15.64;89.04
63779;BME280;49923;55.970;37.516;2022-07-29T01:12:01;99742.16;;;15.81;89.52
63779;BME280;49923;55.970;37.516;2022-07-29T01:14:28;99746.28;;;15.85;89.74
63779;BME280;49923;55.970;37.516;2022-07-29T01:17:02;99750.19;;;15.64;89.04
63779;BME280;49923;55.970;37.516;2022-07-29T01:28:13;99746.41;;;15.54;89.77
63779;BME280;49923;55.970;37.516;2022-07-29T01:30:47;99752.41;;;15.56;90.05
63779;BME280;49923;55.970;37.516;2022-07-29T01:33:17;99746.31;;;15.55;89.69
63779;BME280;49923;55.970;37.516;2022-07-29T01:36:10;99745.50;;;15.55;89.56
63779;BME280;49923;55.970;37.516;2022-07-29T01:38:39;99744.63;;;15.54;89.85
63779;BME280;49923;55.970;37.516;2022-07-29T01:41:10;99746.91;;;15.61;90.00
63779;BME280;49923;55.970;37.516;2022-07-29T01:43:44;99748.66;;;15.44;90.04
63779;BME280;49923;55.970;37.516;2022-07-29T01:46:15;99746.22;;;15.57;90.17
63779;BME280;49923;55.970;37.516;2022-07-29T01:48:50;99747.16;;;15.56;89.51
63779;BME280;49923;55.970;37.516;2022-07-29T01:51:20;99755.34;;;15.50;90.06
63779;BME280;49923;55.970;37.516;2022-07-29T01:56:32;99755.97;;;15.39;90.43
63779;BME280;49923;55.970;37.516;2022-07-29T01:59:01;99745.47;;;15.39;90.66
63779;BME280;49923;55.970;37.516;2022-07-29T02:01:29;99750.44;;;15.44;91.22
63779;BME280;49923;55.970;37.516;2022-07-29T02:03:59;99749.88;;;15.54;91.00
63779;BME280;49923;55.970;37.516;2022-07-29T02:06:28;99757.00;;;15.37;90.10
63779;BME280;49923;55.970;37.516;2022-07-29T02:08:57;99744.81;;;15.36;90.02
63779;BME280;49923;55.970;37.516;2022-07-29T02:11:24;99748.78;;;15.27;89.99
63779;BME280;49923;55.970;37.516;2022-07-29T02:13:52;99753.53;;;15.36;89.29
63779;BME280;49923;55.970;37.516;2022-07-29T02:16:21;99753.59;;;15.35;89.72
63779;BME280;49923;55.970;37.516;2022-07-29T02:18:51;99754.53;;;15.34;90.24
63779;BME280;49923;55.970;37.516;2022-07-29T02:21:21;99752.09;;;15.31;89.61
63779;BME280;49923;55.970;37.516;2022-07-29T02:23:50;99751.78;;;15.51;90.02
63779;BME280;49923;55.970;37.516;2022-07-29T02:26:18;99747.47;;;15.50;89.38
63779;BME280;49923;55.970;37.516;2022-07-29T02:28:45;99759.34;;;15.26;88.80
63779;BME280;49923;55.970;37.516;2022-07-29T02:31:12;99759.44;;;15.55;89.72
63779;BME280;49923;55.970;37.516;2022-07-29T02:33:40;99763.63;;;15.74;89.61
63779;BME280;49923;55.970;37.516;2022-07-29T02:36:07;99756.78;;;15.71;89.44
63779;BME280;49923;55.970;37.516;2022-07-29T02:38:35;99765.50;;;15.72;89.41
63779;BME280;49923;55.970;37.516;2022-07-29T02:41:28;99760.25;;;15.72;88.73
63779;BME280;49923;55.970;37.516;2022-07-29T02:44:04;99759.53;;;15.54;87.29
63779;BME280;49923;55.970;37.516;2022-07-29T02:46:34;99765.31;;;15.75;88.52
63779;BME280;49923;55.970;37.516;2022-07-29T02:49:16;99764.31;;;15.77;86.70
63779;BME280;49923;55.970;37.516;2022-07-29T02:52:12;99764.81;;;15.98;87.50
63779;BME280;49923;55.970;37.516;2022-07-29T02:54:53;99760.69;;;15.94;86.77
63779;BME280;49923;55.970;37.516;2022-07-29T02:57:26;99761.63;;;15.93;86.53
63779;BME280;49923;55.970;37.516;2022-07-29T02:59:54;99760.47;;;15.97;85.91
63779;BME280;49923;55.970;37.516;2022-07-29T03:02:21;99760.81;;;16.07;86.75
63779;BME280;49923;55.970;37.516;2022-07-29T03:04:48;99762.00;;;16.15;86.89
63779;BME280;49923;55.970;37.516;2022-07-29T03:07:18;99765.81;;;15.81;85.28
63779;BME280;49923;55.970;37.516;2022-07-29T03:09:44;99762.91;;;15.86;85.65
63779;BME280;49923;55.970;37.516;2022-07-29T03:12:11;99764.38;;;16.06;86.41
63779;BME280;49923;55.970;37.516;2022-07-29T03:14:37;99766.25;;;16.18;85.79
63779;BME280;49923;55.970;37.516;2022-07-29T03:17:04;99760.25;;;16.16;84.79
63779;BME280;49923;55.970;37.516;2022-07-29T03:19:31;99765.13;;;16.22;85.09
63779;BME280;49923;55.970;37.516;2022-07-29T03:21:58;99763.06;;;16.27;85.14
63779;BME280;49923;55.970;37.516;2022-07-29T03:24:31;99759.09;;;16.06;85.12
63779;BME280;49923;55.970;37.516;2022-07-29T03:26:58;99766.06;;;16.07;84.88
63779;BME280;49923;55.970;37.516;2022-07-29T03:29:25;99760.25;;;16.44;85.64
63779;BME280;49923;55.970;37.516;2022-07-29T03:31:51;99764.56;;;16.45;84.44
63779;BME280;49923;55.970;37.516;2022-07-29T03:34:17;99767.97;;;16.47;83.84
63779;BME280;49923;55.970;37.516;2022-07-29T03:36:43;99767.59;;;16.67;83.23
63779;BME280;49923;55.970;37.516;2022-07-29T03:39:10;99764.78;;;16.70;83.07
63779;BME280;49923;55.970;37.516;2022-07-29T03:41:38;99761.47;;;16.95;84.67
63779;BME280;49923;55.970;37.516;2022-07-29T03:44:07;99761.56;;;16.79;83.25
63779;BME280;49923;55.970;37.516;2022-07-29T03:46:35;99760.94;;;16.76;83.96
63779;BME280;49923;55.970;37.516;2022-07-29T03:49:04;99765.16;;;16.64;82.30
63779;BME280;49923;55.970;37.516;2022-07-29T03:51:30;99765.22;;;17.05;83.89
63779;BME280;49923;55.970;37.516;2022-07-29T03:53:57;99767.88;;;16.49;80.86
63779;BME280;49923;55.970;37.516;2022-07-29T03:56:23;99763.91;;;16.98;82.81
63779;BME280;49923;55.970;37.516;2022-07-29T03:58:51;99765.72;;;16.84;82.55
63779;BME280;49923;55.970;37.516;2022-07-29T04:01:19;99760.41;;;16.98;81.18
63779;BME280;49923;55.970;37.516;2022-07-29T04:03:45;99766.13;;;17.18;82.44
63779;BME280;49923;55.970;37.516;2022-07-29T04:06:12;99764.09;;;17.36;82.79
63779;BME280;49923;55.970;37.516;2022-07-29T04:08:38;99765.41;;;17.29;80.42
63779;BME280;49923;55.970;37.516;2022-07-29T04:11:05;99764.81;;;17.38;80.92
63779;BME280;49923;55.970;37.516;2022-07-29T04:13:31;99781.00;;;17.32;79.89
63779;BME280;49923;55.970;37.516;2022-07-29T04:15:57;99773.06;;;17.46;80.30
63779;BME280;49923;55.970;37.516;2022-07-29T04:18:24;99772.31;;;17.44;79.20
63779;BME280;49923;55.970;37.516;2022-07-29T04:20:50;99767.19;;;17.55;80.61
63779;BME280;49923;55.970;37.516;2022-07-29T04:23:16;99781.22;;;17.29;79.38
63779;BME280;49923;55.970;37.516;2022-07-29T04:25:42;99779.03;;;17.36;79.31
63779;BME280;49923;55.970;37.516;2022-07-29T04:28:09;99777.31;;;17.49;80.34
63779;BME280;49923;55.970;37.516;2022-07-29T04:30:37;99782.69;;;17.33;79.48
63779;BME280;49923;55.970;37.516;2022-07-29T04:33:05;99789.44;;;17.10;77.93
63779;BME280;49923;55.970;37.516;2022-07-29T04:35:36;99779.94;;;17.49;79.51
63779;BME280;49923;55.970;37.516;2022-07-29T04:38:04;99788.50;;;17.38;79.57
63779;BME280;49923;55.970;37.516;2022-07-29T04:40:30;99790.81;;;17.30;78.82
63779;BME280;49923;55.970;37.516;2022-07-29T04:42:59;99791.75;;;17.29;79.59
63779;BME280;49923;55.970;37.516;2022-07-29T04:45:26;99786.84;;;17.64;80.14
63779;BME280;49923;55.970;37.516;2022-07-29T04:47:53;99783.84;;;17.83;80.47
63779;BME280;49923;55.970;37.516;2022-07-29T04:50:19;99788.06;;;17.58;78.99
63779;BME280;49923;55.970;37.516;2022-07-29T04:52:45;99784.50;;;17.59;79.16
63779;BME280;49923;55.970;37.516;2022-07-29T04:55:11;99787.13;;;17.59;78.05
63779;BME280;49923;55.970;37.516;2022-07-29T04:57:37;99798.13;;;17.66;78.43
63779;BME280;49923;55.970;37.516;2022-07-29T05:00:04;99790.56;;;17.74;78.67
63779;BME280;49923;55.970;37.516;2022-07-29T05:02:30;99793.59;;;17.41;78.63
63779;BME280;49923;55.970;37.516;2022-07-29T05:04:56;99788.53;;;17.65;77.59
63779;BME280;49923;55.970;37.516;2022-07-29T05:07:23;99784.03;;;17.80;79.34
63779;BME280;49923;55.970;37.516;2022-07-29T05:09:49;99786.38;;;17.97;78.45
63779;BME280;49923;55.970;37.516;2022-07-29T05:12:15;99782.22;;;17.68;77.86
63779;BME280;49923;55.970;37.516;2022-07-29T05:14:40;99783.06;;;17.68;77.81
63779;BME280;49923;55.970;37.516;2022-07-29T05:17:06;99785.22;;;17.88;78.34
63779;BME280;49923;55.970;37.516;2022-07-29T05:19:33;99786.50;;;17.95;78.02
63779;BME280;49923;55.970;37.516;2022-07-29T05:21:59;99786.09;;;18.02;77.26
63779;BME280;49923;55.970;37.516;2022-07-29T05:24:26;99783.88;;;17.95;75.71
63779;BME280;49923;55.970;37.516;2022-07-29T05:26:52;99783.34;;;18.16;77.29
63779;BME280;49923;55.970;37.516;2022-07-29T05:29:18;99779.38;;;18.35;76.85
63779;BME280;49923;55.970;37.516;2022-07-29T05:31:43;99794.50;;;17.94;74.49
63779;BME280;49923;55.970;37.516;2022-07-29T05:34:09;99788.56;;;18.42;76.72
63779;BME280;49923;55.970;37.516;2022-07-29T05:36:35;99784.13;;;18.30;75.10
63779;BME280;49923;55.970;37.516;2022-07-29T05:39:01;99787.16;;;18.50;75.87
63779;BME280;49923;55.970;37.516;2022-07-29T05:41:27;99786.13;;;18.52;75.31
63779;BME280;49923;55.970;37.516;2022-07-29T05:43:54;99791.50;;;18.63;75.30
63779;BME280;49923;55.970;37.516;2022-07-29T05:46:20;99785.50;;;18.49;73.26
63779;BME280;49923;55.970;37.516;2022-07-29T05:48:46;99793.94;;;18.66;74.96
63779;BME280;49923;55.970;37.516;2022-07-29T05:51:12;99789.06;;;18.35;72.65
63779;BME280;49923;55.970;37.516;2022-07-29T05:53:38;99781.91;;;18.75;75.06
63779;BME280;49923;55.970;37.516;2022-07-29T05:56:04;99788.53;;;18.80;73.04
63779;BME280;49923;55.970;37.516;2022-07-29T05:58:31;99787.59;;;18.18;70.37
63779;BME280;49923;55.970;37.516;2022-07-29T06:00:57;99787.31;;;18.61;72.35
63779;BME280;49923;55.970;37.516;2022-07-29T06:03:26;99785.53;;;18.61;71.33
63779;BME280;49923;55.970;37.516;2022-07-29T06:05:52;99789.91;;;18.35;69.69
63779;BME280;49923;55.970;37.516;2022-07-29T06:08:18;99787.41;;;18.59;70.94
63779;BME280;49923;55.970;37.516;2022-07-29T06:10:44;99783.94;;;18.59;70.88
63779;BME280;49923;55.970;37.516;2022-07-29T06:13:12;99781.34;;;18.95;71.95
63779;BME280;49923;55.970;37.516;2022-07-29T06:15:38;99790.63;;;18.88;70.31
63779;BME280;49923;55.970;37.516;2022-07-29T06:18:04;99781.22;;;18.97;69.85
63779;BME280;49923;55.970;37.516;2022-07-29T06:20:34;99784.53;;;19.24;70.45
63779;BME280;49923;55.970;37.516;2022-07-29T06:23:00;99783.28;;;19.17;69.09
63779;BME280;49923;55.970;37.516;2022-07-29T06:25:27;99787.16;;;18.88;66.30
63779;BME280;49923;55.970;37.516;2022-07-29T06:27:58;99782.22;;;18.45;67.10
63779;BME280;49923;55.970;37.516;2022-07-29T06:30:24;99780.44;;;18.58;67.78
63779;BME280;49923;55.970;37.516;2022-07-29T06:32:50;99781.72;;;18.65;66.80
63779;BME280;49923;55.970;37.516;2022-07-29T06:35:16;99783.97;;;18.95;68.58
63779;BME280;49923;55.970;37.516;2022-07-29T06:37:42;99776.50;;;18.89;64.79
63779;BME280;49923;55.970;37.516;2022-07-29T06:40:08;99773.69;;;19.03;66.82
63779;BME280;49923;55.970;37.516;2022-07-29T06:42:53;99778.19;;;18.90;64.53
63779;BME280;49923;55.970;37.516;2022-07-29T06:45:19;99785.13;;;19.28;67.21
63779;BME280;49923;55.970;37.516;2022-07-29T06:47:45;99782.66;;;19.13;63.19
63779;BME280;49923;55.970;37.516;2022-07-29T06:50:11;99780.44;;;19.20;62.19
63779;BME280;49923;55.970;37.516;2022-07-29T06:52:40;99776.31;;;19.40;63.60
63779;BME280;49923;55.970;37.516;2022-07-29T06:55:07;99773.81;;;19.62;63.20
63779;BME280;49923;55.970;37.516;2022-07-29T06:57:33;99772.94;;;19.14;58.63
63779;BME280;49923;55.970;37.516;2022-07-29T07:00:00;99775.75;;;19.60;63.65
63779;BME280;49923;55.970;37.516;2022-07-29T07:02:26;99783.50;;;19.14;60.73
63779;BME280;49923;55.970;37.516;2022-07-29T07:04:53;99781.41;;;19.67;64.78
63779;BME280;49923;55.970;37.516;2022-07-29T07:07:18;99779.09;;;19.97;64.43
63779;BME280;49923;55.970;37.516;2022-07-29T07:09:44;99781.88;;;19.60;58.44
63779;BME280;49923;55.970;37.516;2022-07-29T07:12:19;99777.41;;;19.85;60.38
63779;BME280;49923;55.970;37.516;2022-07-29T07:14:46;99776.31;;;19.87;61.68
63779;BME280;49923;55.970;37.516;2022-07-29T07:17:12;99778.69;;;19.79;58.36
63779;BME280;49923;55.970;37.516;2022-07-29T07:19:37;99766.25;;;19.45;59.07
63779;BME280;49923;55.970;37.516;2022-07-29T07:22:03;99782.63;;;19.26;58.22
63779;BME280;49923;55.970;37.516;2022-07-29T07:24:29;99771.38;;;19.48;57.52
63779;BME280;49923;55.970;37.516;2022-07-29T07:26:55;99779.28;;;19.72;59.15
63779;BME280;49923;55.970;37.516;2022-07-29T07:29:21;99770.41;;;19.73;57.06
63779;BME280;49923;55.970;37.516;2022-07-29T07:31:47;99786.31;;;19.23;58.06
63779;BME280;49923;55.970;37.516;2022-07-29T07:34:13;99780.66;;;19.41;60.93
63779;BME280;49923;55.970;37.516;2022-07-29T07:36:39;99778.31;;;20.19;62.29
63779;BME280;49923;55.970;37.516;2022-07-29T07:39:05;99777.16;;;20.34;59.06
63779;BME280;49923;55.970;37.516;2022-07-29T07:41:31;99782.13;;;20.61;59.11
63779;BME280;49923;55.970;37.516;2022-07-29T07:43:57;99775.16;;;20.37;59.38
63779;BME280;49923;55.970;37.516;2022-07-29T07:46:23;99778.03;;;20.34;59.08
63779;BME280;49923;55.970;37.516;2022-07-29T07:48:49;99781.50;;;20.35;56.56
63779;BME280;49923;55.970;37.516;2022-07-29T07:51:15;99784.91;;;20.48;57.01
63779;BME280;49923;55.970;37.516;2022-07-29T07:53:41;99790.47;;;20.21;56.96
63779;BME280;49923;55.970;37.516;2022-07-29T07:56:08;99786.94;;;20.78;55.23
63779;BME280;49923;55.970;37.516;2022-07-29T07:58:34;99795.09;;;20.86;55.07
63779;BME280;49923;55.970;37.516;2022-07-29T08:01:00;99788.97;;;20.63;56.55
63779;BME280;49923;55.970;37.516;2022-07-29T08:03:26;99789.31;;;21.03;59.03
63779;BME280;49923;55.970;37.516;2022-07-29T08:05:52;99785.44;;;21.41;56.89
63779;BME280;49923;55.970;37.516;2022-07-29T08:08:20;99796.28;;;21.38;55.39
63779;BME280;49923;55.970;37.516;2022-07-29T08:10:46;99794.72;;;21.35;54.69
63779;BME280;49923;55.970;37.516;2022-07-29T08:13:22;99796.28;;;21.38;54.15
63779;BME280;49923;55.970;37.516;2022-07-29T08:15:49;99785.16;;;21.55;55.15
63779;BME280;49923;55.970;37.516;2022-07-29T08:18:29;99789.22;;;21.59;54.56
63779;BME280;49923;55.970;37.516;2022-07-29T08:20:56;99791.44;;;21.75;54.37
63779;BME280;49923;55.970;37.516;2022-07-29T08:23:22;99782.06;;;21.91;55.01
63779;BME280;49923;55.970;37.516;2022-07-29T08:25:49;99785.13;;;21.87;52.00
63779;BME280;49923;55.970;37.516;2022-07-29T08:28:16;99790.97;;;21.70;54.61
63779;BME280;49923;55.970;37.516;2022-07-29T08:30:42;99775.81;;;21.92;56.94
63779;BME280;49923;55.970;37.516;2022-07-29T08:33:08;99779.13;;;21.85;55.75
63779;BME280;49923;55.970;37.516;2022-07-29T08:35:34;99780.53;;;21.89;54.64
63779;BME280;49923;55.970;37.516;2022-07-29T08:37:59;99780.16;;;21.93;48.77
63779;BME280;49923;55.970;37.516;2022-07-29T08:40:25;99780.00;;;22.78;54.21
63779;BME280;49923;55.970;37.516;2022-07-29T08:42:51;99783.63;;;21.73;48.85
63779;BME280;49923;55.970;37.516;2022-07-29T08:45:17;99784.97;;;21.36;49.91
63779;BME280;49923;55.970;37.516;2022-07-29T08:47:45;99777.16;;;21.87;51.31
63779;BME280;49923;55.970;37.516;2022-07-29T08:50:11;99774.28;;;22.11;49.97
63779;BME280;49923;55.970;37.516;2022-07-29T08:52:39;99782.25;;;22.31;52.73
63779;BME280;49923;55.970;37.516;2022-07-29T08:55:06;99786.28;;;22.56;49.21
63779;BME280;49923;55.970;37.516;2022-07-29T08:57:34;99777.84;;;22.41;52.71
63779;BME280;49923;55.970;37.516;2022-07-29T09:00:10;99777.47;;;22.76;45.82
63779;BME280;49923;55.970;37.516;2022-07-29T09:02:40;99775.47;;;21.97;45.99
63779;BME280;49923;55.970;37.516;2022-07-29T09:05:07;99777.78;;;22.32;47.15
63779;BME280;49923;55.970;37.516;2022-07-29T09:07:34;99781.28;;;22.32;51.52
63779;BME280;49923;55.970;37.516;2022-07-29T09:10:01;99781.56;;;22.60;51.00
63779;BME280;49923;55.970;37.516;2022-07-29T09:12:27;99782.91;;;22.24;51.62
63779;BME280;49923;55.970;37.516;2022-07-29T09:14:54;99788.94;;;22.77;48.08
63779;BME280;49923;55.970;37.516;2022-07-29T09:17:49;99782.38;;;22.30;46.17
63779;BME280;49923;55.970;37.516;2022-07-29T09:20:18;99786.88;;;22.09;50.17
63779;BME280;49923;55.970;37.516;2022-07-29T09:22:44;99786.78;;;22.71;50.32
63779;BME280;49923;55.970;37.516;2022-07-29T09:25:31;99782.13;;;22.94;50.50
63779;BME280;49923;55.970;37.516;2022-07-29T09:28:12;99777.13;;;22.91;47.13
63779;BME280;49923;55.970;37.516;2022-07-29T09:30:52;99780.25;;;23.15;47.48
63779;BME280;49923;55.970;37.516;2022-07-29T09:33:20;99783.53;;;23.38;51.04
63779;BME280;49923;55.970;37.516;2022-07-29T09:35:46;99781.72;;;22.89;46.39
63779;BME280;49923;55.970;37.516;2022-07-29T09:38:24;99783.66;;;23.26;48.71
63779;BME280;49923;55.970;37.516;2022-07-29T09:41:01;99789.25;;;23.43;45.59
63779;BME280;49923;55.970;37.516;2022-07-29T09:43:27;99782.63;;;23.08;44.06
63779;BME280;49923;55.970;37.516;2022-07-29T09:45:54;99790.41;;;22.70;47.64
63779;BME280;49923;55.970;37.516;2022-07-29T09:48:23;99782.28;;;22.62;46.92
63779;BME280;49923;55.970;37.516;2022-07-29T09:50:49;99784.13;;;22.40;47.58
63779;BME280;49923;55.970;37.516;2022-07-29T09:53:36;99796.91;;;22.56;47.62
63779;BME280;49923;55.970;37.516;2022-07-29T09:56:06;99791.25;;;22.70;45.31
63779;BME280;49923;55.970;37.516;2022-07-29T09:58:32;99788.41;;;22.62;43.73
63779;BME280;49923;55.970;37.516;2022-07-29T10:01:01;99796.56;;;22.91;48.92
63779;BME280;49923;55.970;37.516;2022-07-29T10:03:27;99786.97;;;23.28;47.83
63779;BME280;49923;55.970;37.516;2022-07-29T10:06:09;99797.81;;;22.97;43.73
63779;BME280;49923;55.970;37.516;2022-07-29T10:08:36;99792.94;;;22.20;46.00
63779;BME280;49923;55.970;37.516;2022-07-29T10:11:16;99788.06;;;22.46;43.51
63779;BME280;49923;55.970;37.516;2022-07-29T10:13:44;99788.28;;;22.94;46.04
63779;BME280;49923;55.970;37.516;2022-07-29T10:16:12;99791.34;;;22.38;42.99
63779;BME280;49923;55.970;37.516;2022-07-29T10:18:39;99790.13;;;22.42;42.77
63779;BME280;49923;55.970;37.516;2022-07-29T10:21:05;99789.44;;;22.71;47.12
63779;BME280;49923;55.970;37.516;2022-07-29T10:23:33;99790.22;;;23.42;45.55
63779;BME280;49923;55.970;37.516;2022-07-29T10:26:00;99786.56;;;23.23;44.24
63779;BME280;49923;55.970;37.516;2022-07-29T10:28:26;99785.00;;;23.11;43.78
63779;BME280;49923;55.970;37.516;2022-07-29T10:31:00;99781.31;;;22.93;45.74
63779;BME280;49923;55.970;37.516;2022-07-29T10:44:09;99786.31;;;23.26;44.94
63779;BME280;49923;55.970;37.516;2022-07-29T10:46:40;99784.97;;;23.71;45.90
63779;BME280;49923;55.970;37.516;2022-07-29T10:49:10;99780.75;;;23.58;41.79
63779;BME280;49923;55.970;37.516;2022-07-29T10:52:08;99781.84;;;24.33;40.95
63779;BME280;49923;55.970;37.516;2022-07-29T10:57:27;99781.91;;;23.16;44.09
63779;BME280;49923;55.970;37.516;2022-07-29T11:07:39;99784.88;;;22.73;45.56
63779;BME280;49923;55.970;37.516;2022-07-29T11:15:07;99795.66;;;22.81;45.41
63779;BME280;49923;55.970;37.516;2022-07-29T11:18:06;99790.53;;;22.89;43.47
63779;BME280;49923;55.970;37.516;2022-07-29T11:20:42;99794.13;;;22.58;44.26
63779;BME280;49923;55.970;37.516;2022-07-29T11:23:23;99787.59;;;22.92;46.44
63779;BME280;49923;55.970;37.516;2022-07-29T11:28:54;99788.66;;;23.30;44.42
63779;BME280;49923;55.970;37.516;2022-07-29T11:31:42;99780.41;;;23.23;43.93
63779;BME280;49923;55.970;37.516;2022-07-29T11:39:30;99779.25;;;23.85;44.18
63779;BME280;49923;55.970;37.516;2022-07-29T11:45:19;99772.78;;;23.97;43.41
63779;BME280;49923;55.970;37.516;2022-07-29T11:50:14;99780.19;;;24.22;43.21
63779;BME280;49923;55.970;37.516;2022-07-29T11:52:42;99781.03;;;24.13;42.67
63779;BME280;49923;55.970;37.516;2022-07-29T11:55:18;99778.53;;;24.02;43.06
63779;BME280;49923;55.970;37.516;2022-07-29T11:57:57;99777.34;;;24.33;42.96
63779;BME280;49923;55.970;37.516;2022-07-29T12:00:26;99767.84;;;24.31;41.09
63779;BME280;49923;55.970;37.516;2022-07-29T12:02:53;99778.53;;;23.83;41.25
63779;BME280;49923;55.970;37.516;2022-07-29T12:05:19;99773.41;;;24.84;46.44
63779;BME280;49923;55.970;37.516;2022-07-29T12:26:16;99762.75;;;24.84;42.01
63779;BME280;49923;55.970;37.516;2022-07-29T12:28:42;99759.59;;;24.24;40.96
63779;BME280;49923;55.970;37.516;2022-07-29T12:31:15;99765.00;;;24.42;40.29
63779;BME280;49923;55.970;37.516;2022-07-29T12:33:42;99764.50;;;25.03;43.26
63779;BME280;49923;55.970;37.516;2022-07-29T12:36:08;99763.16;;;24.89;41.54
63779;BME280;49923;55.970;37.516;2022-07-29T12:38:35;99759.31;;;24.64;42.78
63779;BME280;49923;55.970;37.516;2022-07-29T12:41:01;99763.59;;;24.84;42.04
63779;BME280;49923;55.970;37.516;2022-07-29T12:43:27;99764.44;;;25.12;42.37
63779;BME280;49923;55.970;37.516;2022-07-29T12:45:55;99756.78;;;25.27;44.42
63779;BME280;49923;55.970;37.516;2022-07-29T12:48:40;99754.31;;;25.61;38.95
63779;BME280;49923;55.970;37.516;2022-07-29T12:51:07;99752.75;;;25.76;39.83
63779;BME280;49923;55.970;37.516;2022-07-29T12:53:35;99758.28;;;26.00;45.55
63779;BME280;49923;55.970;37.516;2022-07-29T12:56:03;99760.81;;;26.02;45.21
63779;BME280;49923;55.970;37.516;2022-07-29T12:58:41;99748.66;;;25.64;39.14
63779;BME280;49923;55.970;37.516;2022-07-29T13:01:10;99746.50;;;26.29;42.03
63779;BME280;49923;55.970;37.516;2022-07-29T13:06:44;99761.91;;;24.83;38.28
63779;BME280;49923;55.970;37.516;2022-07-29T13:09:20;99763.72;;;25.38;40.09
63779;BME280;49923;55.970;37.516;2022-07-29T13:11:52;99754.88;;;25.55;44.05
63779;BME280;49923;55.970;37.516;2022-07-29T13:14:33;99762.03;;;24.92;40.26
63779;BME280;49923;55.970;37.516;2022-07-29T13:17:02;99767.75;;;24.87;44.10
63779;BME280;49923;55.970;37.516;2022-07-29T13:19:47;99772.44;;;24.75;42.62
63779;BME280;49923;55.970;37.516;2022-07-29T13:22:16;99772.75;;;24.72;43.44
63779;BME280;49923;55.970;37.516;2022-07-29T13:24:55;99766.75;;;24.24;40.81
63779;BME280;49923;55.970;37.516;2022-07-29T13:27:29;99756.38;;;24.11;41.25
63779;BME280;49923;55.970;37.516;2022-07-29T13:29:55;99769.16;;;23.88;42.06
63779;BME280;49923;55.970;37.516;2022-07-29T13:32:26;99765.31;;;24.10;44.21
63779;BME280;49923;55.970;37.516;2022-07-29T13:34:53;99765.22;;;24.02;43.46
63779;BME280;49923;55.970;37.516;2022-07-29T13:37:19;99768.44;;;23.86;44.42
63779;BME280;49923;55.970;37.516;2022-07-29T13:39:45;99762.69;;;24.00;44.58
63779;BME280;49923;55.970;37.516;2022-07-29T13:42:11;99762.72;;;23.91;44.71
63779;BME280;49923;55.970;37.516;2022-07-29T13:44:40;99764.25;;;23.84;44.79
63779;BME280;49923;55.970;37.516;2022-07-29T13:47:07;99753.03;;;23.99;46.45
63779;BME280;49923;55.970;37.516;2022-07-29T13:49:34;99766.66;;;23.67;46.34
63779;BME280;49923;55.970;37.516;2022-07-29T13:52:00;99765.50;;;23.51;45.67
63779;BME280;49923;55.970;37.516;2022-07-29T13:54:26;99761.88;;;23.52;43.65
63779;BME280;49923;55.970;37.516;2022-07-29T13:56:52;99766.69;;;23.27;44.45
63779;BME280;49923;55.970;37.516;2022-07-29T13:59:18;99762.81;;;23.41;44.38
63779;BME280;49923;55.970;37.516;2022-07-29T14:01:45;99765.53;;;23.80;44.41
63779;BME280;49923;55.970;37.516;2022-07-29T14:04:11;99758.63;;;24.06;44.40
63779;BME280;49923;55.970;37.516;2022-07-29T14:06:37;99771.19;;;23.37;42.82
63779;BME280;49923;55.970;37.516;2022-07-29T14:09:04;99762.25;;;23.38;43.93
63779;BME280;49923;55.970;37.516;2022-07-29T14:11:35;99760.88;;;23.43;43.12